sensor_id;sensor_type;location;lat;lon;timestamp;P1;durP1;ratioP1;P2;durP2;ratioP2
11052;SDS011;55230;42.602;23.470;2022-11-22T00:01:20;4.27;;;3.87;;
11052;SDS011;55230;42.602;23.470;2022-11-22T00:03:47;3.83;;;3.53;;
11052;SDS011;55230;42.602;23.470;2022-11-22T00:06:14;4.47;;;3.73;;
11052;SDS011;55230;42.602;23.470;2022-11-22T00:08:41;4.57;;;4.17;;
11052;SDS011;55230;42.602;23.470;2022-11-22T00:11:09;3.63;;;3.33;;
11052;SDS011;55230;42.602;23.470;2022-11-22T00:13:35;4.17;;;3.77;;
11052;SDS011;55230;42.602;23.470;2022-11-22T00:16:03;4.30;;;3.90;;
11052;SDS011;55230;42.602;23.470;2022-11-22T00:18:30;6.73;;;6.03;;
11052;SDS011;55230;42.602;23.470;2022-11-22T00:21:00;7.40;;;6.17;;
11052;SDS011;55230;42.602;23.470;2022-11-22T00:23:30;6.73;;;5.27;;
11052;SDS011;55230;42.602;23.470;2022-11-22T00:25:57;5.30;;;4.80;;
11052;SDS011;55230;42.602;23.470;2022-11-22T00:28:25;4.70;;;4.30;;
11052;SDS011;55230;42.602;23.470;2022-11-22T00:30:52;5.40;;;4.73;;
11052;SDS011;55230;42.602;23.470;2022-11-22T00:33:18;5.30;;;4.53;;
11052;SDS011;55230;42.602;23.470;2022-11-22T00:35:45;5.70;;;4.40;;
11052;SDS011;55230;42.602;23.470;2022-11-22T00:38:12;5.40;;;4.50;;
11052;SDS011;55230;42.602;23.470;2022-11-22T00:40:39;4.17;;;3.77;;
11052;SDS011;55230;42.602;23.470;2022-11-22T00:43:05;4.20;;;3.80;;
11052;SDS011;55230;42.602;23.470;2022-11-22T00:45:33;3.40;;;3.03;;
11052;SDS011;55230;42.602;23.470;2022-11-22T00:48:00;3.73;;;3.33;;
11052;SDS011;55230;42.602;23.470;2022-11-22T00:50:27;6.07;;;4.87;;
11052;SDS011;55230;42.602;23.470;2022-11-22T00:52:54;5.40;;;4.80;;
11052;SDS011;55230;42.602;23.470;2022-11-22T00:55:21;5.73;;;5.00;;
11052;SDS011;55230;42.602;23.470;2022-11-22T00:57:47;5.30;;;4.80;;
11052;SDS011;55230;42.602;23.470;2022-11-22T01:00:14;10.40;;;7.50;;
11052;SDS011;55230;42.602;23.470;2022-11-22T01:02:43;8.27;;;6.47;;
11052;SDS011;55230;42.602;23.470;2022-11-22T01:05:10;7.03;;;5.07;;
11052;SDS011;55230;42.602;23.470;2022-11-22T01:07:37;4.23;;;3.83;;
11052;SDS011;55230;42.602;23.470;2022-11-22T01:10:04;4.90;;;4.37;;
11052;SDS011;55230;42.602;23.470;2022-11-22T01:12:31;4.30;;;3.90;;
11052;SDS011;55230;42.602;23.470;2022-11-22T01:14:58;4.47;;;4.07;;
11052;SDS011;55230;42.602;23.470;2022-11-22T01:17:25;4.80;;;4.40;;
11052;SDS011;55230;42.602;23.470;2022-11-22T01:19:53;4.97;;;4.40;;
11052;SDS011;55230;42.602;23.470;2022-11-22T01:22:20;4.87;;;4.20;;
11052;SDS011;55230;42.602;23.470;2022-11-22T01:24:47;5.33;;;4.57;;
11052;SDS011;55230;42.602;23.470;2022-11-22T01:27:13;5.03;;;4.50;;
11052;SDS011;55230;42.602;23.470;2022-11-22T01:29:40;4.53;;;4.13;;
11052;SDS011;55230;42.602;23.470;2022-11-22T01:32:07;6.50;;;4.40;;
11052;SDS011;55230;42.602;23.470;2022-11-22T01:34:34;5.30;;;4.63;;
11052;SDS011;55230;42.602;23.470;2022-11-22T01:37:02;5.27;;;4.70;;
11052;SDS011;55230;42.602;23.470;2022-11-22T01:39:29;5.23;;;4.73;;
11052;SDS011;55230;42.602;23.470;2022-11-22T01:41:55;5.27;;;4.67;;
11052;SDS011;55230;42.602;23.470;2022-11-22T01:44:23;5.13;;;4.63;;
11052;SDS011;55230;42.602;23.470;2022-11-22T01:46:51;5.33;;;4.83;;
11052;SDS011;55230;42.602;23.470;2022-11-22T01:49:23;5.00;;;4.50;;
11052;SDS011;55230;42.602;23.470;2022-11-22T01:51:54;5.03;;;4.27;;
11052;SDS011;55230;42.602;23.470;2022-11-22T01:54:26;6.30;;;4.47;;
11052;SDS011;55230;42.602;23.470;2022-11-22T01:56:57;4.83;;;4.33;;
11052;SDS011;55230;42.602;23.470;2022-11-22T01:59:29;4.93;;;4.30;;
11052;SDS011;55230;42.602;23.470;2022-11-22T02:01:58;5.10;;;4.60;;
11052;SDS011;55230;42.602;23.470;2022-11-22T02:04:26;5.17;;;4.37;;
11052;SDS011;55230;42.602;23.470;2022-11-22T02:06:55;5.23;;;4.40;;
11052;SDS011;55230;42.602;23.470;2022-11-22T02:09:29;5.17;;;4.30;;
11052;SDS011;55230;42.602;23.470;2022-11-22T02:11:59;5.13;;;4.63;;
11052;SDS011;55230;42.602;23.470;2022-11-22T02:14:27;5.30;;;4.70;;
11052;SDS011;55230;42.602;23.470;2022-11-22T02:16:55;6.57;;;5.20;;
11052;SDS011;55230;42.602;23.470;2022-11-22T02:19:25;5.90;;;5.07;;
11052;SDS011;55230;42.602;23.470;2022-11-22T02:22:00;5.50;;;4.83;;
11052;SDS011;55230;42.602;23.470;2022-11-22T02:24:34;5.10;;;4.30;;
11052;SDS011;55230;42.602;23.470;2022-11-22T02:27:08;5.70;;;4.57;;
11052;SDS011;55230;42.602;23.470;2022-11-22T02:29:35;5.87;;;4.47;;
11052;SDS011;55230;42.602;23.470;2022-11-22T02:32:02;5.23;;;4.43;;
11052;SDS011;55230;42.602;23.470;2022-11-22T02:34:29;5.10;;;4.53;;
11052;SDS011;55230;42.602;23.470;2022-11-22T02:37:05;5.43;;;4.83;;
11052;SDS011;55230;42.602;23.470;2022-11-22T02:39:32;5.63;;;4.27;;
11052;SDS011;55230;42.602;23.470;2022-11-22T02:41:59;5.83;;;4.90;;
11052;SDS011;55230;42.602;23.470;2022-11-22T02:44:28;5.47;;;4.50;;
11052;SDS011;55230;42.602;23.470;2022-11-22T02:46:55;5.70;;;4.60;;
11052;SDS011;55230;42.602;23.470;2022-11-22T02:49:22;5.17;;;4.67;;
11052;SDS011;55230;42.602;23.470;2022-11-22T02:51:50;5.47;;;4.70;;
11052;SDS011;55230;42.602;23.470;2022-11-22T02:54:17;5.90;;;4.70;;
11052;SDS011;55230;42.602;23.470;2022-11-22T02:56:44;5.17;;;4.17;;
11052;SDS011;55230;42.602;23.470;2022-11-22T02:59:12;5.57;;;4.50;;
11052;SDS011;55230;42.602;23.470;2022-11-22T03:01:40;5.53;;;4.43;;
11052;SDS011;55230;42.602;23.470;2022-11-22T03:04:08;5.97;;;4.77;;
11052;SDS011;55230;42.602;23.470;2022-11-22T03:06:48;8.43;;;7.53;;
11052;SDS011;55230;42.602;23.470;2022-11-22T03:09:15;6.77;;;5.83;;
11052;SDS011;55230;42.602;23.470;2022-11-22T03:11:42;5.57;;;4.83;;
11052;SDS011;55230;42.602;23.470;2022-11-22T03:14:09;6.07;;;4.17;;
11052;SDS011;55230;42.602;23.470;2022-11-22T03:16:36;5.60;;;4.60;;
11052;SDS011;55230;42.602;23.470;2022-11-22T03:19:04;5.13;;;4.57;;
11052;SDS011;55230;42.602;23.470;2022-11-22T03:21:31;6.10;;;5.30;;
11052;SDS011;55230;42.602;23.470;2022-11-22T03:23:58;7.17;;;5.83;;
11052;SDS011;55230;42.602;23.470;2022-11-22T03:26:24;7.47;;;5.13;;
11052;SDS011;55230;42.602;23.470;2022-11-22T03:28:51;5.30;;;4.37;;
11052;SDS011;55230;42.602;23.470;2022-11-22T03:31:18;5.60;;;5.00;;
11052;SDS011;55230;42.602;23.470;2022-11-22T03:33:45;5.57;;;4.83;;
11052;SDS011;55230;42.602;23.470;2022-11-22T03:36:13;16.17;;;10.27;;
11052;SDS011;55230;42.602;23.470;2022-11-22T03:38:40;24.97;;;18.27;;
11052;SDS011;55230;42.602;23.470;2022-11-22T03:41:06;19.27;;;14.70;;
11052;SDS011;55230;42.602;23.470;2022-11-22T03:43:33;9.73;;;7.50;;
11052;SDS011;55230;42.602;23.470;2022-11-22T03:46:00;7.13;;;6.23;;
11052;SDS011;55230;42.602;23.470;2022-11-22T03:48:27;6.33;;;5.57;;
11052;SDS011;55230;42.602;23.470;2022-11-22T03:51:01;6.67;;;5.23;;
11052;SDS011;55230;42.602;23.470;2022-11-22T03:53:30;8.23;;;6.37;;
11052;SDS011;55230;42.602;23.470;2022-11-22T03:55:56;8.83;;;6.50;;
11052;SDS011;55230;42.602;23.470;2022-11-22T03:58:23;5.73;;;5.07;;
11052;SDS011;55230;42.602;23.470;2022-11-22T04:00:50;6.37;;;5.17;;
11052;SDS011;55230;42.602;23.470;2022-11-22T04:03:17;6.97;;;5.67;;
11052;SDS011;55230;42.602;23.470;2022-11-22T04:05:43;6.90;;;5.30;;
11052;SDS011;55230;42.602;23.470;2022-11-22T04:08:10;5.57;;;4.90;;
11052;SDS011;55230;42.602;23.470;2022-11-22T04:10:38;7.07;;;6.13;;
11052;SDS011;55230;42.602;23.470;2022-11-22T04:13:05;6.23;;;4.90;;
11052;SDS011;55230;42.602;23.470;2022-11-22T04:15:32;5.73;;;4.83;;
11052;SDS011;55230;42.602;23.470;2022-11-22T04:17:58;5.67;;;4.23;;
11052;SDS011;55230;42.602;23.470;2022-11-22T04:20:26;5.53;;;4.70;;
11052;SDS011;55230;42.602;23.470;2022-11-22T04:23:12;5.17;;;4.57;;
11052;SDS011;55230;42.602;23.470;2022-11-22T04:25:42;5.97;;;5.33;;
11052;SDS011;55230;42.602;23.470;2022-11-22T04:28:10;8.07;;;6.60;;
11052;SDS011;55230;42.602;23.470;2022-11-22T04:30:38;7.97;;;5.83;;
11052;SDS011;55230;42.602;23.470;2022-11-22T04:33:22;7.93;;;5.77;;
11052;SDS011;55230;42.602;23.470;2022-11-22T04:35:50;18.57;;;9.23;;
11052;SDS011;55230;42.602;23.470;2022-11-22T04:38:17;23.80;;;13.10;;
11052;SDS011;55230;42.602;23.470;2022-11-22T04:40:46;10.43;;;7.60;;
11052;SDS011;55230;42.602;23.470;2022-11-22T04:43:15;14.07;;;10.27;;
11052;SDS011;55230;42.602;23.470;2022-11-22T04:46:17;12.83;;;9.37;;
11052;SDS011;55230;42.602;23.470;2022-11-22T04:48:43;8.77;;;6.60;;
11052;SDS011;55230;42.602;23.470;2022-11-22T04:51:11;7.87;;;6.23;;
11052;SDS011;55230;42.602;23.470;2022-11-22T04:53:57;8.50;;;6.80;;
11052;SDS011;55230;42.602;23.470;2022-11-22T04:56:25;9.13;;;6.17;;
11052;SDS011;55230;42.602;23.470;2022-11-22T04:58:52;11.37;;;7.57;;
11052;SDS011;55230;42.602;23.470;2022-11-22T05:01:19;10.40;;;6.77;;
11052;SDS011;55230;42.602;23.470;2022-11-22T05:03:46;10.00;;;5.70;;
11052;SDS011;55230;42.602;23.470;2022-11-22T05:06:13;18.40;;;10.53;;
11052;SDS011;55230;42.602;23.470;2022-11-22T05:08:40;16.43;;;11.00;;
11052;SDS011;55230;42.602;23.470;2022-11-22T05:11:06;12.40;;;8.50;;
11052;SDS011;55230;42.602;23.470;2022-11-22T05:13:35;10.10;;;7.20;;
11052;SDS011;55230;42.602;23.470;2022-11-22T05:16:03;20.50;;;12.97;;
11052;SDS011;55230;42.602;23.470;2022-11-22T05:18:32;9.33;;;6.30;;
11052;SDS011;55230;42.602;23.470;2022-11-22T05:21:02;15.33;;;11.87;;
11052;SDS011;55230;42.602;23.470;2022-11-22T05:23:30;11.00;;;8.60;;
11052;SDS011;55230;42.602;23.470;2022-11-22T05:26:14;5.97;;;4.97;;
11052;SDS011;55230;42.602;23.470;2022-11-22T05:28:42;9.53;;;6.87;;
11052;SDS011;55230;42.602;23.470;2022-11-22T05:31:09;10.30;;;8.20;;
11052;SDS011;55230;42.602;23.470;2022-11-22T05:33:38;8.93;;;7.47;;
11052;SDS011;55230;42.602;23.470;2022-11-22T05:36:06;8.27;;;6.37;;
11052;SDS011;55230;42.602;23.470;2022-11-22T05:38:34;13.67;;;9.40;;
11052;SDS011;55230;42.602;23.470;2022-11-22T05:41:03;10.97;;;7.50;;
11052;SDS011;55230;42.602;23.470;2022-11-22T05:43:31;11.77;;;8.67;;
11052;SDS011;55230;42.602;23.470;2022-11-22T05:46:04;9.60;;;6.57;;
11052;SDS011;55230;42.602;23.470;2022-11-22T05:48:32;7.73;;;6.00;;
11052;SDS011;55230;42.602;23.470;2022-11-22T05:51:02;9.97;;;6.60;;
11052;SDS011;55230;42.602;23.470;2022-11-22T05:53:29;9.90;;;7.07;;
11052;SDS011;55230;42.602;23.470;2022-11-22T05:55:56;12.53;;;7.67;;
11052;SDS011;55230;42.602;23.470;2022-11-22T05:58:23;14.33;;;9.70;;
11052;SDS011;55230;42.602;23.470;2022-11-22T06:00:49;8.00;;;6.13;;
11052;SDS011;55230;42.602;23.470;2022-11-22T06:03:17;12.73;;;8.67;;
11052;SDS011;55230;42.602;23.470;2022-11-22T06:05:49;10.40;;;8.03;;
11052;SDS011;55230;42.602;23.470;2022-11-22T06:08:16;15.03;;;9.97;;
11052;SDS011;55230;42.602;23.470;2022-11-22T06:10:43;12.47;;;8.53;;
11052;SDS011;55230;42.602;23.470;2022-11-22T06:13:10;14.10;;;8.83;;
11052;SDS011;55230;42.602;23.470;2022-11-22T06:15:37;10.87;;;8.13;;
11052;SDS011;55230;42.602;23.470;2022-11-22T06:18:04;6.60;;;5.57;;
11052;SDS011;55230;42.602;23.470;2022-11-22T06:20:32;6.77;;;4.90;;
11052;SDS011;55230;42.602;23.470;2022-11-22T06:22:58;5.77;;;5.20;;
11052;SDS011;55230;42.602;23.470;2022-11-22T06:25:25;10.30;;;7.40;;
11052;SDS011;55230;42.602;23.470;2022-11-22T06:27:52;4.77;;;4.03;;
11052;SDS011;55230;42.602;23.470;2022-11-22T06:30:19;5.50;;;4.60;;
11052;SDS011;55230;42.602;23.470;2022-11-22T06:32:46;3.90;;;3.43;;
11052;SDS011;55230;42.602;23.470;2022-11-22T06:35:13;5.43;;;4.70;;
11052;SDS011;55230;42.602;23.470;2022-11-22T06:37:41;3.80;;;3.50;;
11052;SDS011;55230;42.602;23.470;2022-11-22T06:40:08;4.77;;;4.27;;
11052;SDS011;55230;42.602;23.470;2022-11-22T06:42:35;3.33;;;3.03;;
11052;SDS011;55230;42.602;23.470;2022-11-22T06:45:02;5.07;;;4.57;;
11052;SDS011;55230;42.602;23.470;2022-11-22T06:47:30;8.67;;;7.17;;
11052;SDS011;55230;42.602;23.470;2022-11-22T06:49:57;5.33;;;4.83;;
11052;SDS011;55230;42.602;23.470;2022-11-22T06:52:24;4.93;;;4.30;;
11052;SDS011;55230;42.602;23.470;2022-11-22T06:54:52;8.27;;;7.07;;
11052;SDS011;55230;42.602;23.470;2022-11-22T06:57:19;5.00;;;4.50;;
11052;SDS011;55230;42.602;23.470;2022-11-22T06:59:46;8.37;;;7.47;;
11052;SDS011;55230;42.602;23.470;2022-11-22T07:02:13;7.37;;;6.07;;
11052;SDS011;55230;42.602;23.470;2022-11-22T07:04:39;5.63;;;4.80;;
11052;SDS011;55230;42.602;23.470;2022-11-22T07:07:06;6.67;;;5.77;;
11052;SDS011;55230;42.602;23.470;2022-11-22T07:09:33;6.57;;;5.33;;
11052;SDS011;55230;42.602;23.470;2022-11-22T07:12:03;8.07;;;5.27;;
11052;SDS011;55230;42.602;23.470;2022-11-22T07:14:30;6.17;;;5.10;;
11052;SDS011;55230;42.602;23.470;2022-11-22T07:16:57;6.70;;;5.57;;
11052;SDS011;55230;42.602;23.470;2022-11-22T07:19:24;7.80;;;5.93;;
11052;SDS011;55230;42.602;23.470;2022-11-22T07:21:51;7.73;;;6.20;;
11052;SDS011;55230;42.602;23.470;2022-11-22T07:24:17;8.47;;;7.00;;
11052;SDS011;55230;42.602;23.470;2022-11-22T07:26:44;8.63;;;6.30;;
11052;SDS011;55230;42.602;23.470;2022-11-22T07:29:12;6.03;;;5.10;;
11052;SDS011;55230;42.602;23.470;2022-11-22T07:31:39;10.87;;;7.43;;
11052;SDS011;55230;42.602;23.470;2022-11-22T07:34:06;6.90;;;6.03;;
11052;SDS011;55230;42.602;23.470;2022-11-22T07:36:32;6.90;;;5.63;;
11052;SDS011;55230;42.602;23.470;2022-11-22T07:38:59;6.63;;;5.27;;
11052;SDS011;55230;42.602;23.470;2022-11-22T07:41:28;9.20;;;7.20;;
11052;SDS011;55230;42.602;23.470;2022-11-22T07:43:55;26.53;;;14.83;;
11052;SDS011;55230;42.602;23.470;2022-11-22T07:46:24;33.00;;;18.90;;
11052;SDS011;55230;42.602;23.470;2022-11-22T07:48:53;19.53;;;13.67;;
11052;SDS011;55230;42.602;23.470;2022-11-22T07:51:21;16.47;;;11.77;;
11052;SDS011;55230;42.602;23.470;2022-11-22T07:53:48;24.57;;;15.20;;
11052;SDS011;55230;42.602;23.470;2022-11-22T07:56:15;18.80;;;12.27;;
11052;SDS011;55230;42.602;23.470;2022-11-22T07:58:42;9.63;;;7.67;;
11052;SDS011;55230;42.602;23.470;2022-11-22T08:01:09;10.60;;;7.50;;
11052;SDS011;55230;42.602;23.470;2022-11-22T08:03:38;10.50;;;8.43;;
11052;SDS011;55230;42.602;23.470;2022-11-22T08:06:06;12.40;;;9.33;;
11052;SDS011;55230;42.602;23.470;2022-11-22T08:08:35;12.73;;;9.17;;
11052;SDS011;55230;42.602;23.470;2022-11-22T08:11:02;15.03;;;11.27;;
11052;SDS011;55230;42.602;23.470;2022-11-22T08:13:31;16.13;;;11.40;;
11052;SDS011;55230;42.602;23.470;2022-11-22T08:16:00;24.37;;;16.63;;
11052;SDS011;55230;42.602;23.470;2022-11-22T08:18:27;15.60;;;11.40;;
11052;SDS011;55230;42.602;23.470;2022-11-22T08:21:02;13.30;;;10.30;;
11052;SDS011;55230;42.602;23.470;2022-11-22T08:23:29;14.50;;;10.70;;
11052;SDS011;55230;42.602;23.470;2022-11-22T08:25:56;12.97;;;9.80;;
11052;SDS011;55230;42.602;23.470;2022-11-22T08:28:23;14.90;;;11.07;;
11052;SDS011;55230;42.602;23.470;2022-11-22T08:30:50;13.80;;;9.67;;
11052;SDS011;55230;42.602;23.470;2022-11-22T08:33:17;10.80;;;8.83;;
11052;SDS011;55230;42.602;23.470;2022-11-22T08:35:47;13.20;;;10.20;;
11052;SDS011;55230;42.602;23.470;2022-11-22T08:38:16;17.07;;;10.40;;
11052;SDS011;55230;42.602;23.470;2022-11-22T08:40:43;20.87;;;12.03;;
11052;SDS011;55230;42.602;23.470;2022-11-22T08:43:09;12.87;;;9.63;;
11052;SDS011;55230;42.602;23.470;2022-11-22T08:45:36;16.27;;;12.00;;
11052;SDS011;55230;42.602;23.470;2022-11-22T08:48:03;19.00;;;11.93;;
11052;SDS011;55230;42.602;23.470;2022-11-22T08:50:30;12.77;;;8.93;;
11052;SDS011;55230;42.602;23.470;2022-11-22T08:52:58;15.23;;;9.57;;
11052;SDS011;55230;42.602;23.470;2022-11-22T08:55:27;12.00;;;8.97;;
11052;SDS011;55230;42.602;23.470;2022-11-22T08:57:56;13.73;;;10.77;;
11052;SDS011;55230;42.602;23.470;2022-11-22T09:00:23;19.63;;;12.90;;
11052;SDS011;55230;42.602;23.470;2022-11-22T09:02:50;14.97;;;11.20;;
11052;SDS011;55230;42.602;23.470;2022-11-22T09:05:17;12.77;;;10.10;;
11052;SDS011;55230;42.602;23.470;2022-11-22T09:07:44;14.83;;;10.60;;
11052;SDS011;55230;42.602;23.470;2022-11-22T09:10:11;13.13;;;10.93;;
11052;SDS011;55230;42.602;23.470;2022-11-22T09:12:40;16.97;;;11.13;;
11052;SDS011;55230;42.602;23.470;2022-11-22T09:15:09;16.27;;;11.90;;
11052;SDS011;55230;42.602;23.470;2022-11-22T09:17:35;12.73;;;9.47;;
11052;SDS011;55230;42.602;23.470;2022-11-22T09:20:03;10.70;;;8.60;;
11052;SDS011;55230;42.602;23.470;2022-11-22T09:22:30;11.10;;;8.93;;
11052;SDS011;55230;42.602;23.470;2022-11-22T09:24:57;11.17;;;9.17;;
11052;SDS011;55230;42.602;23.470;2022-11-22T09:27:24;10.73;;;8.47;;
11052;SDS011;55230;42.602;23.470;2022-11-22T09:29:52;13.37;;;10.13;;
11052;SDS011;55230;42.602;23.470;2022-11-22T09:32:19;13.13;;;9.93;;
11052;SDS011;55230;42.602;23.470;2022-11-22T09:34:46;12.07;;;9.47;;
11052;SDS011;55230;42.602;23.470;2022-11-22T09:37:12;11.50;;;8.33;;
11052;SDS011;55230;42.602;23.470;2022-11-22T09:39:42;9.83;;;7.90;;
11052;SDS011;55230;42.602;23.470;2022-11-22T09:42:25;11.60;;;8.43;;
11052;SDS011;55230;42.602;23.470;2022-11-22T09:45:14;10.50;;;8.63;;
11052;SDS011;55230;42.602;23.470;2022-11-22T09:48:00;11.30;;;8.30;;
11052;SDS011;55230;42.602;23.470;2022-11-22T09:50:38;8.23;;;7.17;;
11052;SDS011;55230;42.602;23.470;2022-11-22T09:53:14;9.67;;;7.40;;
11052;SDS011;55230;42.602;23.470;2022-11-22T09:55:48;16.93;;;12.40;;
11052;SDS011;55230;42.602;23.470;2022-11-22T09:58:21;11.37;;;9.23;;
11052;SDS011;55230;42.602;23.470;2022-11-22T10:00:54;48.27;;;29.30;;
11052;SDS011;55230;42.602;23.470;2022-11-22T10:03:27;17.50;;;12.93;;
11052;SDS011;55230;42.602;23.470;2022-11-22T10:06:04;14.07;;;11.10;;
11052;SDS011;55230;42.602;23.470;2022-11-22T10:08:35;10.03;;;8.87;;
11052;SDS011;55230;42.602;23.470;2022-11-22T10:11:10;9.83;;;8.10;;
11052;SDS011;55230;42.602;23.470;2022-11-22T10:13:46;9.20;;;7.40;;
11052;SDS011;55230;42.602;23.470;2022-11-22T10:16:19;9.90;;;8.70;;
11052;SDS011;55230;42.602;23.470;2022-11-22T10:18:53;10.97;;;8.87;;
11052;SDS011;55230;42.602;23.470;2022-11-22T10:21:24;12.23;;;9.30;;
11052;SDS011;55230;42.602;23.470;2022-11-22T10:23:52;16.13;;;11.47;;
11052;SDS011;55230;42.602;23.470;2022-11-22T10:26:20;12.17;;;9.57;;
11052;SDS011;55230;42.602;23.470;2022-11-22T10:28:53;14.17;;;11.13;;
11052;SDS011;55230;42.602;23.470;2022-11-22T10:31:31;13.13;;;10.70;;
11052;SDS011;55230;42.602;23.470;2022-11-22T10:34:03;23.33;;;15.10;;
11052;SDS011;55230;42.602;23.470;2022-11-22T10:36:41;22.17;;;15.13;;
11052;SDS011;55230;42.602;23.470;2022-11-22T10:39:18;24.20;;;16.40;;
11052;SDS011;55230;42.602;23.470;2022-11-22T10:41:58;16.00;;;10.97;;
11052;SDS011;55230;42.602;23.470;2022-11-22T10:44:41;12.50;;;9.17;;
11052;SDS011;55230;42.602;23.470;2022-11-22T10:47:16;10.97;;;8.80;;
11052;SDS011;55230;42.602;23.470;2022-11-22T10:49:54;11.70;;;9.20;;
11052;SDS011;55230;42.602;23.470;2022-11-22T10:52:29;16.60;;;10.63;;
11052;SDS011;55230;42.602;23.470;2022-11-22T10:55:08;9.90;;;8.27;;
11052;SDS011;55230;42.602;23.470;2022-11-22T10:57:48;17.93;;;12.27;;
11052;SDS011;55230;42.602;23.470;2022-11-22T11:00:22;13.60;;;10.67;;
11052;SDS011;55230;42.602;23.470;2022-11-22T11:02:56;9.67;;;8.07;;
11052;SDS011;55230;42.602;23.470;2022-11-22T11:05:29;13.33;;;10.63;;
11052;SDS011;55230;42.602;23.470;2022-11-22T11:08:01;9.70;;;7.83;;
11052;SDS011;55230;42.602;23.470;2022-11-22T11:10:29;7.60;;;6.80;;
11052;SDS011;55230;42.602;23.470;2022-11-22T11:13:01;9.87;;;7.30;;
11052;SDS011;55230;42.602;23.470;2022-11-22T11:15:33;8.23;;;6.70;;
11052;SDS011;55230;42.602;23.470;2022-11-22T11:18:04;9.07;;;7.40;;
11052;SDS011;55230;42.602;23.470;2022-11-22T11:20:38;9.87;;;7.20;;
11052;SDS011;55230;42.602;23.470;2022-11-22T11:23:07;10.57;;;7.43;;
11052;SDS011;55230;42.602;23.470;2022-11-22T11:25:35;8.43;;;7.17;;
11052;SDS011;55230;42.602;23.470;2022-11-22T11:28:05;7.80;;;6.77;;
11052;SDS011;55230;42.602;23.470;2022-11-22T11:30:38;9.13;;;7.20;;
11052;SDS011;55230;42.602;23.470;2022-11-22T11:33:17;11.67;;;8.67;;
11052;SDS011;55230;42.602;23.470;2022-11-22T11:35:51;11.10;;;8.80;;
11052;SDS011;55230;42.602;23.470;2022-11-22T11:41:14;10.73;;;7.80;;
11052;SDS011;55230;42.602;23.470;2022-11-22T11:43:43;7.97;;;6.53;;
11052;SDS011;55230;42.602;23.470;2022-11-22T11:46:14;12.20;;;8.30;;
11052;SDS011;55230;42.602;23.470;2022-11-22T11:48:44;11.07;;;8.50;;
11052;SDS011;55230;42.602;23.470;2022-11-22T11:51:15;10.40;;;8.57;;
11052;SDS011;55230;42.602;23.470;2022-11-22T11:53:49;12.90;;;9.87;;
11052;SDS011;55230;42.602;23.470;2022-11-22T11:56:38;12.97;;;10.23;;
11052;SDS011;55230;42.602;23.470;2022-11-22T11:59:13;16.23;;;12.07;;
11052;SDS011;55230;42.602;23.470;2022-11-22T12:01:45;17.80;;;13.80;;
11052;SDS011;55230;42.602;23.470;2022-11-22T12:04:19;19.63;;;15.73;;
11052;SDS011;55230;42.602;23.470;2022-11-22T12:06:55;21.43;;;16.97;;
11052;SDS011;55230;42.602;23.470;2022-11-22T12:09:27;22.30;;;17.50;;
11052;SDS011;55230;42.602;23.470;2022-11-22T12:12:01;26.30;;;18.57;;
11052;SDS011;55230;42.602;23.470;2022-11-22T12:14:44;24.13;;;18.23;;
11052;SDS011;55230;42.602;23.470;2022-11-22T12:17:18;23.47;;;18.23;;
11052;SDS011;55230;42.602;23.470;2022-11-22T12:19:55;3.90;;;3.60;;
11052;SDS011;55230;42.602;23.470;2022-11-22T12:22:29;2.67;;;2.30;;
11052;SDS011;55230;42.602;23.470;2022-11-22T12:25:06;2.50;;;2.30;;
11052;SDS011;55230;42.602;23.470;2022-11-22T12:27:45;2.03;;;1.90;;
11052;SDS011;55230;42.602;23.470;2022-11-22T12:30:13;2.37;;;2.13;;
11052;SDS011;55230;42.602;23.470;2022-11-22T12:32:41;28.80;;;21.63;;
11052;SDS011;55230;42.602;23.470;2022-11-22T12:35:16;14.43;;;10.40;;
11052;SDS011;55230;42.602;23.470;2022-11-22T12:37:47;6.80;;;5.13;;
11052;SDS011;55230;42.602;23.470;2022-11-22T12:40:21;2.87;;;2.67;;
11052;SDS011;55230;42.602;23.470;2022-11-22T12:42:51;2.10;;;1.90;;
11052;SDS011;55230;42.602;23.470;2022-11-22T12:45:23;2.17;;;2.00;;
11052;SDS011;55230;42.602;23.470;2022-11-22T12:47:54;2.83;;;2.60;;
11052;SDS011;55230;42.602;23.470;2022-11-22T12:50:25;3.03;;;2.40;;
11052;SDS011;55230;42.602;23.470;2022-11-22T12:52:57;4.27;;;2.80;;
11052;SDS011;55230;42.602;23.470;2022-11-22T12:55:29;3.87;;;2.83;;
11052;SDS011;55230;42.602;23.470;2022-11-22T12:58:02;2.87;;;2.60;;
11052;SDS011;55230;42.602;23.470;2022-11-22T13:00:40;4.43;;;4.03;;
11052;SDS011;55230;42.602;23.470;2022-11-22T13:03:13;4.63;;;4.20;;
11052;SDS011;55230;42.602;23.470;2022-11-22T13:05:47;4.33;;;3.10;;
11052;SDS011;55230;42.602;23.470;2022-11-22T13:08:17;2.57;;;2.37;;
11052;SDS011;55230;42.602;23.470;2022-11-22T13:10:54;3.20;;;2.90;;
11052;SDS011;55230;42.602;23.470;2022-11-22T13:13:25;4.23;;;3.80;;
11052;SDS011;55230;42.602;23.470;2022-11-22T13:15:55;4.53;;;4.13;;
11052;SDS011;55230;42.602;23.470;2022-11-22T13:18:24;7.07;;;3.87;;
11052;SDS011;55230;42.602;23.470;2022-11-22T13:20:56;8.30;;;5.67;;
11052;SDS011;55230;42.602;23.470;2022-11-22T13:23:48;8.77;;;5.83;;
11052;SDS011;55230;42.602;23.470;2022-11-22T13:26:26;7.87;;;5.67;;
11052;SDS011;55230;42.602;23.470;2022-11-22T13:29:00;5.60;;;4.67;;
11052;SDS011;55230;42.602;23.470;2022-11-22T13:31:35;5.60;;;5.00;;
11052;SDS011;55230;42.602;23.470;2022-11-22T13:34:22;3.80;;;3.30;;
11052;SDS011;55230;42.602;23.470;2022-11-22T13:36:51;3.80;;;3.10;;
11052;SDS011;55230;42.602;23.470;2022-11-22T13:39:19;3.73;;;3.00;;
11052;SDS011;55230;42.602;23.470;2022-11-22T13:41:54;4.10;;;3.50;;
11052;SDS011;55230;42.602;23.470;2022-11-22T13:44:35;2.90;;;2.50;;
11052;SDS011;55230;42.602;23.470;2022-11-22T13:50:01;8.73;;;5.90;;
11052;SDS011;55230;42.602;23.470;2022-11-22T13:52:50;8.07;;;5.33;;
11052;SDS011;55230;42.602;23.470;2022-11-22T13:55:25;12.13;;;8.93;;
11052;SDS011;55230;42.602;23.470;2022-11-22T14:01:01;2.83;;;2.57;;
11052;SDS011;55230;42.602;23.470;2022-11-22T14:03:38;7.47;;;2.53;;
11052;SDS011;55230;42.602;23.470;2022-11-22T14:06:14;3.93;;;2.70;;
11052;SDS011;55230;42.602;23.470;2022-11-22T14:08:48;6.07;;;3.03;;
11052;SDS011;55230;42.602;23.470;2022-11-22T14:11:50;2.87;;;2.67;;
11052;SDS011;55230;42.602;23.470;2022-11-22T14:14:30;10.90;;;7.17;;
11052;SDS011;55230;42.602;23.470;2022-11-22T14:17:06;4.27;;;3.17;;
11052;SDS011;55230;42.602;23.470;2022-11-22T14:19:47;3.93;;;3.20;;
11052;SDS011;55230;42.602;23.470;2022-11-22T14:22:26;3.93;;;3.37;;
11052;SDS011;55230;42.602;23.470;2022-11-22T14:25:26;27.20;;;17.03;;
11052;SDS011;55230;42.602;23.470;2022-11-22T14:28:07;11.07;;;8.93;;
11052;SDS011;55230;42.602;23.470;2022-11-22T14:30:45;19.80;;;13.50;;
11052;SDS011;55230;42.602;23.470;2022-11-22T14:33:16;14.90;;;12.43;;
11052;SDS011;55230;42.602;23.470;2022-11-22T14:38:40;15.63;;;10.77;;
11052;SDS011;55230;42.602;23.470;2022-11-22T14:44:08;21.63;;;16.67;;
11052;SDS011;55230;42.602;23.470;2022-11-22T14:46:39;24.47;;;18.20;;
11052;SDS011;55230;42.602;23.470;2022-11-22T14:49:12;17.37;;;12.77;;
11052;SDS011;55230;42.602;23.470;2022-11-22T14:51:43;16.20;;;13.30;;
11052;SDS011;55230;42.602;23.470;2022-11-22T14:54:14;13.57;;;9.80;;
11052;SDS011;55230;42.602;23.470;2022-11-22T14:56:48;27.83;;;18.97;;
11052;SDS011;55230;42.602;23.470;2022-11-22T14:59:38;61.20;;;38.73;;